createdAt,value
2019-02-12T00:00:14.190Z,0.88
2019-02-12T00:01:57.278Z,0.88
2019-02-12T00:03:57.276Z,0.81
2019-02-12T00:05:57.262Z,0.81
2019-02-12T00:07:57.216Z,0.81
2019-02-12T00:09:57.253Z,0.88
2019-02-12T00:11:57.268Z,0.81
2019-02-12T00:13:57.263Z,0.81
2019-02-12T00:15:14.147Z,0.81
2019-02-12T00:15:57.203Z,0.81
2019-02-12T00:17:57.255Z,0.88
2019-02-12T00:19:57.252Z,0.81
2019-02-12T00:21:57.194Z,0.88
2019-02-12T00:23:57.265Z,0.88
2019-02-12T00:25:57.217Z,0.88
2019-02-12T00:27:57.267Z,0.81
2019-02-12T00:29:57.258Z,0.81
2019-02-12T00:30:14.184Z,0.81
2019-02-12T00:31:57.261Z,0.81
2019-02-12T00:33:57.281Z,0.81
2019-02-12T00:35:57.254Z,0.81
2019-02-12T00:37:57.263Z,0.75
2019-02-12T00:39:57.282Z,0.75
2019-02-12T00:41:57.260Z,0.81
2019-02-12T00:43:57.189Z,0.75
2019-02-12T00:45:14.193Z,0.75
2019-02-12T00:45:58.935Z,0.75
2019-02-12T00:47:57.207Z,0.75
2019-02-12T00:49:57.244Z,0.75
2019-02-12T00:51:57.259Z,0.81
2019-02-12T00:53:57.258Z,0.75
2019-02-12T00:55:57.167Z,0.69
2019-02-12T00:57:57.259Z,0.69
2019-02-12T00:59:57.240Z,0.75
2019-02-12T01:00:14.193Z,0.69
2019-02-12T01:01:57.283Z,0.69
2019-02-12T01:03:58.532Z,0.75
2019-02-12T01:05:57.205Z,0.81
2019-02-12T01:07:57.277Z,0.81
2019-02-12T01:09:57.255Z,0.88
2019-02-12T01:11:57.269Z,0.94
2019-02-12T01:13:57.222Z,1
2019-02-12T01:15:14.148Z,1
2019-02-12T01:15:57.281Z,1
2019-02-12T01:17:57.248Z,1.06
2019-02-12T01:19:58.137Z,1.13
2019-02-12T01:21:57.280Z,1.13
2019-02-12T01:23:57.124Z,1.06
2019-02-12T01:25:57.252Z,1.06
2019-02-12T01:27:58.188Z,1
2019-02-12T01:29:57.169Z,0.94
2019-02-12T01:30:14.269Z,0.94
2019-02-12T01:31:57.189Z,0.94
2019-02-12T01:33:57.267Z,0.94
2019-02-12T01:35:57.173Z,0.88
2019-02-12T01:37:57.176Z,0.88
2019-02-12T01:39:57.086Z,0.81
2019-02-12T01:41:57.306Z,0.75
2019-02-12T01:43:57.256Z,0.75
2019-02-12T01:45:14.088Z,0.81
2019-02-12T01:45:57.214Z,0.81
2019-02-12T01:47:57.207Z,0.81
2019-02-12T01:49:57.211Z,0.81
2019-02-12T01:51:57.258Z,0.81
2019-02-12T01:53:57.218Z,0.75
2019-02-12T01:55:57.184Z,0.75
2019-02-12T01:57:57.268Z,0.75
2019-02-12T01:59:57.250Z,0.69
2019-02-12T02:00:14.179Z,0.69
2019-02-12T02:01:57.263Z,0.69
2019-02-12T02:03:57.272Z,0.69
2019-02-12T02:05:57.171Z,0.69
2019-02-12T02:07:58.167Z,0.69
2019-02-12T02:09:57.260Z,0.69
2019-02-12T02:11:57.247Z,0.63
2019-02-12T02:13:57.263Z,0.69
2019-02-12T02:15:14.213Z,0.63
2019-02-12T02:15:57.196Z,0.63
2019-02-12T02:17:57.206Z,0.63
2019-02-12T02:19:57.267Z,0.69
2019-02-12T02:21:57.310Z,0.63
2019-02-12T02:23:57.187Z,0.69
2019-02-12T02:25:58.162Z,0.63
2019-02-12T02:27:58.084Z,0.56
2019-02-12T02:29:57.279Z,0.56
2019-02-12T02:30:14.142Z,0.56
2019-02-12T02:31:57.267Z,0.56
2019-02-12T02:33:57.257Z,0.56
2019-02-12T02:35:57.201Z,0.5
2019-02-12T02:37:57.191Z,0.5
2019-02-12T02:39:57.268Z,0.5
2019-02-12T02:41:57.173Z,0.5
2019-02-12T02:43:57.210Z,0.5
2019-02-12T02:45:14.215Z,0.56
2019-02-12T02:45:57.273Z,0.5
2019-02-12T02:47:57.260Z,0.5
2019-02-12T02:49:57.251Z,0.5
2019-02-12T02:51:57.266Z,0.5
2019-02-12T02:53:57.251Z,0.5
2019-02-12T02:55:58.048Z,0.5
2019-02-12T02:57:57.203Z,0.5
2019-02-12T02:59:57.255Z,0.56
2019-02-12T03:00:14.216Z,0.5
2019-02-12T03:01:57.257Z,0.44
2019-02-12T03:03:57.254Z,0.5
2019-02-12T03:05:57.281Z,0.44
2019-02-12T03:07:57.201Z,0.5
2019-02-12T03:09:57.102Z,0.44
2019-02-12T03:11:57.246Z,0.44
2019-02-12T03:13:57.253Z,0.44
2019-02-12T03:15:14.129Z,0.44
2019-02-12T03:15:57.184Z,0.44
2019-02-12T03:17:57.255Z,0.44
2019-02-12T03:19:57.227Z,0.44
2019-02-12T03:22:03.347Z,0.44
2019-02-12T03:23:57.260Z,0.44
2019-02-12T03:25:57.279Z,0.38
2019-02-12T03:27:57.268Z,0.38
2019-02-12T03:29:57.245Z,0.44
2019-02-12T03:30:14.202Z,0.44
2019-02-12T03:31:57.266Z,0.44
2019-02-12T03:33:57.273Z,0.44
2019-02-12T03:35:57.220Z,0.38
2019-02-12T03:37:57.267Z,0.38
2019-02-12T03:39:57.257Z,0.38
2019-02-12T03:41:58.941Z,0.38
2019-02-12T03:43:57.217Z,0.44
2019-02-12T03:45:14.224Z,0.38
2019-02-12T03:45:57.262Z,0.38
2019-02-12T03:47:57.253Z,0.38
2019-02-12T03:49:59.086Z,0.31
2019-02-12T03:51:59.646Z,0.38
2019-02-12T03:53:58.141Z,0.31
2019-02-12T03:55:57.266Z,0.31
2019-02-12T03:57:57.264Z,0.31
2019-02-12T03:59:57.104Z,0.31
2019-02-12T04:00:14.188Z,0.31
2019-02-12T04:01:57.270Z,0.31
2019-02-12T04:03:57.254Z,0.31
2019-02-12T04:05:57.360Z,0.31
2019-02-12T04:07:57.263Z,0.25
2019-02-12T04:09:57.262Z,0.31
2019-02-12T04:11:57.262Z,0.31
2019-02-12T04:13:57.234Z,0.31
2019-02-12T04:15:14.229Z,0.31
2019-02-12T04:15:57.263Z,0.31
2019-02-12T04:17:57.270Z,0.38
2019-02-12T04:19:57.303Z,0.38
2019-02-12T04:21:57.268Z,0.38
2019-02-12T04:23:57.180Z,0.38
2019-02-12T04:25:57.229Z,0.31
2019-02-12T04:27:57.273Z,0.31
2019-02-12T04:29:57.286Z,0.31
2019-02-12T04:30:14.199Z,0.31
2019-02-12T04:31:57.253Z,0.31
2019-02-12T04:33:57.266Z,0.31
2019-02-12T04:35:57.258Z,0.31
2019-02-12T04:37:57.177Z,0.31
2019-02-12T04:39:57.292Z,0.31
2019-02-12T04:41:57.264Z,0.31
2019-02-12T04:43:57.170Z,0.25
2019-02-12T04:45:14.139Z,0.25
2019-02-12T04:45:57.200Z,0.25
2019-02-12T04:47:57.275Z,0.25
2019-02-12T04:49:57.257Z,0.25
2019-02-12T04:51:57.273Z,0.25
2019-02-12T04:53:57.197Z,0.31
2019-02-12T04:55:57.250Z,0.25
2019-02-12T04:57:57.279Z,0.25
2019-02-12T04:59:57.249Z,0.25
2019-02-12T05:00:14.194Z,0.25
2019-02-12T05:01:57.264Z,0.25
2019-02-12T05:03:57.242Z,0.25
2019-02-12T05:05:57.239Z,0.19
2019-02-12T05:07:57.103Z,0.19
2019-02-12T05:09:57.257Z,0.25
2019-02-12T05:11:57.161Z,0.19
2019-02-12T05:13:57.254Z,0.13
2019-02-12T05:15:14.213Z,0.13
2019-02-12T05:15:57.267Z,0.13
2019-02-12T05:17:57.260Z,0.13
2019-02-12T05:19:57.275Z,0.13
2019-02-12T05:21:57.257Z,0.13
2019-02-12T05:23:59.072Z,0.06
2019-02-12T05:25:58.160Z,0.06
2019-02-12T05:27:57.275Z,0.06
2019-02-12T05:29:57.253Z,0
2019-02-12T05:30:14.184Z,0
2019-02-12T05:31:57.238Z,0
2019-02-12T05:33:57.264Z,-0.06
2019-02-12T05:35:57.272Z,-0.06
2019-02-12T05:37:57.244Z,-0.06
2019-02-12T05:39:57.273Z,-0.06
2019-02-12T05:41:57.180Z,-0.06
2019-02-12T05:43:57.190Z,-0.13
2019-02-12T05:45:15.065Z,-0.13
2019-02-12T05:45:57.247Z,-0.13
2019-02-12T05:47:57.256Z,-0.13
2019-02-12T05:49:58.154Z,-0.13
2019-02-12T05:51:57.247Z,-0.06
2019-02-12T05:53:57.173Z,-0.13
2019-02-12T05:55:57.252Z,-0.13
2019-02-12T05:57:57.172Z,-0.13
2019-02-12T05:59:57.363Z,-0.13
2019-02-12T06:00:14.195Z,-0.13
2019-02-12T06:01:57.229Z,-0.13
2019-02-12T06:03:57.257Z,-0.13
2019-02-12T06:05:57.207Z,-0.13
2019-02-12T06:07:57.279Z,-0.13
2019-02-12T06:09:57.251Z,-0.13
2019-02-12T06:11:57.275Z,-0.13
2019-02-12T06:13:57.221Z,-0.13
2019-02-12T06:15:15.112Z,-0.06
2019-02-12T06:15:57.244Z,-0.13
2019-02-12T06:17:57.260Z,-0.13
2019-02-12T06:19:57.169Z,-0.06
2019-02-12T06:21:57.240Z,-0.06
2019-02-12T06:23:57.283Z,-0.06
2019-02-12T06:25:57.206Z,-0.06
2019-02-12T06:27:57.273Z,-0.06
2019-02-12T06:29:57.265Z,0
2019-02-12T06:30:14.173Z,0
2019-02-12T06:31:57.262Z,0
2019-02-12T06:33:57.270Z,0
2019-02-12T06:35:58.070Z,-0.06
2019-02-12T06:37:57.262Z,0
2019-02-12T06:39:57.258Z,0
2019-02-12T06:41:57.172Z,0
2019-02-12T06:43:57.205Z,0
2019-02-12T06:45:14.230Z,0
2019-02-12T06:45:57.262Z,0
2019-02-12T06:47:57.321Z,0
2019-02-12T06:49:58.029Z,0
2019-02-12T06:51:57.226Z,0
2019-02-12T06:53:57.175Z,0
2019-02-12T06:55:57.224Z,0
2019-02-12T06:57:57.097Z,0.06
2019-02-12T06:59:57.217Z,0.06
2019-02-12T07:00:14.196Z,0.06
2019-02-12T07:01:57.256Z,0.06
2019-02-12T07:03:57.260Z,0.13
2019-02-12T07:05:57.227Z,0.13
2019-02-12T07:07:57.245Z,0.13
2019-02-12T07:09:57.236Z,0.13
2019-02-12T07:11:57.264Z,0.19
2019-02-12T07:13:57.278Z,0.19
2019-02-12T07:15:14.137Z,0.19
2019-02-12T07:15:57.292Z,0.19
2019-02-12T07:17:57.258Z,0.19
2019-02-12T07:19:57.265Z,0.25
2019-02-12T07:21:58.068Z,0.25
2019-02-12T07:23:57.232Z,0.31
2019-02-12T07:25:57.183Z,0.31
2019-02-12T07:27:57.256Z,0.31
2019-02-12T07:29:57.202Z,0.31
2019-02-12T07:30:14.216Z,0.31
2019-02-12T07:31:58.078Z,0.31
2019-02-12T07:33:57.317Z,0.31
2019-02-12T07:35:57.255Z,0.31
2019-02-12T07:37:57.254Z,0.38
2019-02-12T07:39:57.257Z,0.38
2019-02-12T07:41:58.144Z,0.38
2019-02-12T07:43:57.256Z,0.38
2019-02-12T07:45:14.171Z,0.38
2019-02-12T07:45:57.199Z,0.38
2019-02-12T07:47:57.194Z,0.44
2019-02-12T07:49:57.264Z,0.44
2019-02-12T07:51:57.268Z,0.5
2019-02-12T07:53:57.268Z,0.5
2019-02-12T07:55:57.281Z,0.56
2019-02-12T07:57:57.251Z,0.56
2019-02-12T07:59:57.192Z,0.63
2019-02-12T08:00:14.190Z,0.63
2019-02-12T08:01:57.239Z,0.69
2019-02-12T08:03:57.181Z,0.69
2019-02-12T08:05:57.261Z,0.75
2019-02-12T08:07:57.254Z,0.81
2019-02-12T08:09:57.179Z,0.81
2019-02-12T08:11:57.283Z,0.88
2019-02-12T08:13:57.273Z,0.94
2019-02-12T08:15:14.219Z,0.94
2019-02-12T08:15:57.286Z,1
2019-02-12T08:17:57.105Z,1
2019-02-12T08:19:57.209Z,1
2019-02-12T08:21:57.255Z,1
2019-02-12T08:23:57.262Z,1
2019-02-12T08:25:57.250Z,1.06
2019-02-12T08:27:57.268Z,1.06
2019-02-12T08:29:57.242Z,1.13
2019-02-12T08:30:14.195Z,1.13
2019-02-12T08:31:57.260Z,1.13
2019-02-12T08:33:57.341Z,1.13
2019-02-12T08:35:57.687Z,1.13
2019-02-12T08:37:57.170Z,1.19
2019-02-12T08:39:57.273Z,1.19
2019-02-12T08:41:57.209Z,1.25
2019-02-12T08:43:57.269Z,1.31
2019-02-12T08:45:14.243Z,1.31
2019-02-12T08:45:57.262Z,1.38
2019-02-12T08:47:57.214Z,1.44
2019-02-12T08:49:57.262Z,1.44
2019-02-12T08:51:57.282Z,1.5
2019-02-12T08:53:57.187Z,1.5
2019-02-12T08:55:57.242Z,1.5
2019-02-12T08:57:57.234Z,1.56
2019-02-12T08:59:57.270Z,1.56
2019-02-12T09:00:14.172Z,1.56
2019-02-12T09:01:57.262Z,1.63
2019-02-12T09:03:57.267Z,1.63
2019-02-12T09:05:57.170Z,1.69
2019-02-12T09:07:57.259Z,1.69
2019-02-12T09:09:57.267Z,1.75
2019-02-12T09:11:57.255Z,1.75
2019-02-12T09:13:57.251Z,1.75
2019-02-12T09:15:14.225Z,1.75
2019-02-12T09:15:57.264Z,1.75
2019-02-12T09:17:57.246Z,1.81
2019-02-12T09:19:57.248Z,1.81
2019-02-12T09:21:57.269Z,1.81
2019-02-12T09:24:00.327Z,1.88
2019-02-12T09:25:57.258Z,1.88
2019-02-12T09:27:57.255Z,1.94
2019-02-12T09:29:57.174Z,1.94
2019-02-12T09:30:14.194Z,1.94
2019-02-12T09:31:57.193Z,1.94
2019-02-12T09:33:57.272Z,2
2019-02-12T09:35:57.252Z,2
2019-02-12T09:37:57.263Z,2
2019-02-12T09:39:57.203Z,2.06
2019-02-12T09:41:57.229Z,2.06
2019-02-12T09:43:57.269Z,2.13
2019-02-12T09:45:14.205Z,2.13
2019-02-12T09:45:57.262Z,2.13
2019-02-12T09:47:57.248Z,2.19
2019-02-12T09:49:57.257Z,2.19
2019-02-12T09:51:57.253Z,2.25
2019-02-12T09:53:57.255Z,2.25
2019-02-12T09:55:57.239Z,2.31
2019-02-12T09:57:57.252Z,2.38
2019-02-12T09:59:57.196Z,2.38
2019-02-12T10:00:14.283Z,2.44
2019-02-12T10:01:57.274Z,2.5
2019-02-12T10:03:57.277Z,2.5
2019-02-12T10:05:57.256Z,2.56
2019-02-12T10:07:57.355Z,2.63
2019-02-12T10:09:57.216Z,2.63
2019-02-12T10:11:57.276Z,2.69
2019-02-12T10:13:57.283Z,2.75
2019-02-12T10:15:14.191Z,2.75
2019-02-12T10:15:57.272Z,2.75
2019-02-12T10:17:57.291Z,2.75
2019-02-12T10:19:57.263Z,2.81
2019-02-12T10:21:57.273Z,2.88
2019-02-12T10:23:57.206Z,2.94
2019-02-12T10:25:57.232Z,2.94
2019-02-12T10:27:57.298Z,3.06
2019-02-12T10:29:57.247Z,3.13
2019-02-12T10:30:15.022Z,3.13
2019-02-12T10:31:57.280Z,3.13
2019-02-12T10:33:57.281Z,3.19
2019-02-12T10:35:57.307Z,3.19
2019-02-12T10:37:57.188Z,3.19
2019-02-12T10:39:57.266Z,3.25
2019-02-12T10:41:57.298Z,3.25
2019-02-12T10:43:57.293Z,3.31
2019-02-12T10:45:14.158Z,3.38
2019-02-12T10:45:57.264Z,3.38
2019-02-12T10:47:57.277Z,3.38
2019-02-12T10:49:57.308Z,3.44
2019-02-12T10:51:57.304Z,3.5
2019-02-12T10:53:57.227Z,3.44
2019-02-12T10:55:57.213Z,3.5
2019-02-12T10:57:57.278Z,3.56
2019-02-12T10:59:57.285Z,3.63
2019-02-12T11:00:14.144Z,3.63
2019-02-12T11:01:58.001Z,3.63
2019-02-12T11:03:57.279Z,3.69
2019-02-12T11:05:57.251Z,3.75
2019-02-12T11:07:58.139Z,3.81
2019-02-12T11:09:57.278Z,3.81
2019-02-12T11:11:57.278Z,3.81
2019-02-12T11:13:57.261Z,3.88
2019-02-12T11:15:14.199Z,3.88
2019-02-12T11:15:57.247Z,3.88
2019-02-12T11:17:57.277Z,3.88
2019-02-12T11:19:57.325Z,3.88
2019-02-12T11:21:57.256Z,3.88
2019-02-12T11:23:57.244Z,3.94
2019-02-12T11:25:57.271Z,4
2019-02-12T11:27:57.273Z,4
2019-02-12T11:29:57.250Z,4.13
2019-02-12T11:30:15.027Z,4.13
2019-02-12T11:31:57.290Z,4.06
2019-02-12T11:33:57.282Z,4.13
2019-02-12T11:35:57.277Z,4.13
2019-02-12T11:37:57.189Z,4.13
2019-02-12T11:39:57.271Z,4.13
2019-02-12T11:41:57.287Z,4.19
2019-02-12T11:43:57.253Z,4.25
2019-02-12T11:45:14.209Z,4.31
2019-02-12T11:45:57.303Z,4.38
2019-02-12T11:47:57.216Z,4.38
2019-02-12T11:49:57.252Z,4.5
2019-02-12T11:51:57.285Z,4.5
2019-02-12T11:53:57.263Z,4.56
2019-02-12T11:55:57.260Z,4.5
2019-02-12T11:57:58.080Z,4.44
2019-02-12T11:59:57.173Z,4.44
2019-02-12T12:00:14.187Z,4.5
2019-02-12T12:01:58.066Z,4.44
2019-02-12T12:03:58.140Z,4.5
2019-02-12T12:05:57.265Z,4.56
2019-02-12T12:07:57.147Z,4.63
2019-02-12T12:09:57.239Z,4.63
2019-02-12T12:11:57.209Z,4.69
2019-02-12T12:13:57.281Z,4.75
2019-02-12T12:15:14.210Z,4.69
2019-02-12T12:15:57.282Z,4.69
2019-02-12T12:17:57.274Z,4.69
2019-02-12T12:19:57.202Z,4.69
2019-02-12T12:21:57.288Z,4.69
2019-02-12T12:23:57.283Z,4.69
2019-02-12T12:25:57.302Z,4.56
2019-02-12T12:27:57.274Z,4.56
2019-02-12T12:29:57.266Z,4.56
2019-02-12T12:30:14.219Z,4.56
2019-02-12T12:31:57.280Z,4.56
2019-02-12T12:33:57.179Z,4.5
2019-02-12T12:35:57.240Z,4.5
2019-02-12T12:37:57.299Z,4.56
2019-02-12T12:39:57.280Z,4.56
2019-02-12T12:41:57.248Z,4.56
2019-02-12T12:43:57.334Z,4.63
2019-02-12T12:45:14.196Z,4.63
2019-02-12T12:45:57.271Z,4.63
2019-02-12T12:47:57.279Z,4.63
2019-02-12T12:49:58.988Z,4.69
2019-02-12T12:51:57.223Z,4.69
2019-02-12T12:53:57.277Z,4.75
2019-02-12T12:55:57.226Z,4.81
2019-02-12T12:57:57.346Z,4.88
2019-02-12T12:59:57.318Z,4.94
2019-02-12T13:00:14.049Z,4.88
2019-02-12T13:01:57.294Z,4.94
2019-02-12T13:03:57.275Z,5
2019-02-12T13:05:57.291Z,5.06
2019-02-12T13:07:57.276Z,5.06
2019-02-12T13:09:57.243Z,5.13
2019-02-12T13:11:57.282Z,5.19
2019-02-12T13:13:57.287Z,5.25
2019-02-12T13:15:15.919Z,5.31
2019-02-12T13:15:57.215Z,5.31
2019-02-12T13:17:57.248Z,5.44
2019-02-12T13:19:57.272Z,5.5
2019-02-12T13:21:57.257Z,5.5
2019-02-12T13:23:58.504Z,5.56
2019-02-12T13:25:57.284Z,5.69
2019-02-12T13:27:57.244Z,5.69
2019-02-12T13:29:57.271Z,5.75
2019-02-12T13:30:15.015Z,5.75
2019-02-12T13:31:57.217Z,5.75
2019-02-12T13:33:57.284Z,5.88
2019-02-12T13:35:57.235Z,5.88
2019-02-12T13:37:57.277Z,5.88
2019-02-12T13:39:57.172Z,5.81
2019-02-12T13:41:57.306Z,5.88
2019-02-12T13:43:57.204Z,5.94
2019-02-12T13:45:14.155Z,6
2019-02-12T13:45:57.267Z,6
2019-02-12T13:47:57.273Z,6.06
2019-02-12T13:49:57.250Z,6.06
2019-02-12T13:51:57.202Z,6.19
2019-02-12T13:53:57.289Z,6.25
2019-02-12T13:55:57.123Z,6.25
2019-02-12T13:57:57.380Z,6.25
2019-02-12T13:59:57.282Z,6.31
2019-02-12T14:00:14.131Z,6.31
2019-02-12T14:01:57.189Z,6.44
2019-02-12T14:03:58.090Z,6.38
2019-02-12T14:05:57.259Z,6.38
2019-02-12T14:07:57.310Z,6.31
2019-02-12T14:09:57.213Z,6.31
2019-02-12T14:11:57.275Z,6.31
2019-02-12T14:13:57.266Z,6.31
2019-02-12T14:15:14.219Z,6.25
2019-02-12T14:15:57.100Z,6.25
2019-02-12T14:17:57.279Z,6.19
2019-02-12T14:19:57.268Z,6.13
2019-02-12T14:21:57.267Z,6.13
2019-02-12T14:23:57.145Z,6.13
2019-02-12T14:25:57.210Z,6.06
2019-02-12T14:27:57.276Z,6.13
2019-02-12T14:29:57.283Z,6.25
2019-02-12T14:30:14.201Z,6.25
2019-02-12T14:31:57.257Z,6.25
2019-02-12T14:33:57.269Z,6.25
2019-02-12T14:35:57.270Z,6.31
2019-02-12T14:37:57.284Z,6.31
2019-02-12T14:39:57.285Z,6.38
2019-02-12T14:41:57.294Z,6.44
2019-02-12T14:43:57.268Z,6.5
2019-02-12T14:45:14.175Z,6.5
2019-02-12T14:45:57.264Z,6.5
2019-02-12T14:47:57.268Z,6.56
2019-02-12T14:49:57.267Z,6.56
2019-02-12T14:51:57.272Z,6.63
2019-02-12T14:53:57.274Z,6.56
2019-02-12T14:55:57.250Z,6.5
2019-02-12T14:57:57.181Z,6.56
2019-02-12T14:59:57.159Z,6.5
2019-02-12T15:00:14.174Z,6.5
2019-02-12T15:01:57.179Z,6.5
2019-02-12T15:03:57.236Z,6.5
2019-02-12T15:05:57.268Z,6.5
2019-02-12T15:07:57.288Z,6.56
2019-02-12T15:09:57.271Z,6.56
2019-02-12T15:11:57.366Z,6.56
2019-02-12T15:13:57.232Z,6.56
2019-02-12T15:15:14.182Z,6.63
2019-02-12T15:15:57.240Z,6.56
2019-02-12T15:17:57.312Z,6.63
2019-02-12T15:19:57.198Z,6.63
2019-02-12T15:21:57.278Z,6.69
2019-02-12T15:23:57.265Z,6.75
2019-02-12T15:25:57.280Z,6.88
2019-02-12T15:27:57.194Z,6.94
2019-02-12T15:29:57.219Z,6.94
2019-02-12T15:30:14.198Z,6.94
2019-02-12T15:31:57.291Z,6.88
2019-02-12T15:33:57.346Z,6.81
2019-02-12T15:35:57.359Z,6.81
2019-02-12T15:37:58.047Z,6.75
2019-02-12T15:39:57.231Z,6.69
2019-02-12T15:41:57.267Z,6.63
2019-02-12T15:43:57.261Z,6.63
2019-02-12T15:45:14.131Z,6.56
2019-02-12T15:45:57.218Z,6.5
2019-02-12T15:47:57.233Z,6.44
2019-02-12T15:49:57.259Z,6.38
2019-02-12T15:51:57.207Z,6.31
2019-02-12T15:53:57.220Z,6.31
2019-02-12T15:55:57.274Z,6.25
2019-02-12T15:57:57.273Z,6.25
2019-02-12T15:59:57.265Z,6.25
2019-02-12T16:00:15.654Z,6.25
2019-02-12T16:01:57.247Z,6.25
2019-02-12T16:03:58.251Z,6.25
2019-02-12T16:05:58.375Z,6.25
2019-02-12T16:07:58.150Z,6.19
2019-02-12T16:09:57.265Z,6.19
2019-02-12T16:11:57.186Z,6.13
2019-02-12T16:13:58.727Z,6.13
2019-02-12T16:15:14.130Z,6.06
2019-02-12T16:15:57.220Z,6
2019-02-12T16:17:59.896Z,5.94
2019-02-12T16:19:57.286Z,5.94
2019-02-12T16:21:57.199Z,5.88
2019-02-12T16:23:57.261Z,5.88
2019-02-12T16:25:59.429Z,5.81
2019-02-12T16:27:57.142Z,5.81
2019-02-12T16:29:58.053Z,5.75
2019-02-12T16:30:14.182Z,5.75
2019-02-12T16:31:57.257Z,5.69
2019-02-12T16:33:57.268Z,5.63
2019-02-12T16:35:57.181Z,5.63
2019-02-12T16:37:57.204Z,5.56
2019-02-12T16:39:58.064Z,5.5
2019-02-12T16:41:58.145Z,5.44
2019-02-12T16:43:57.296Z,5.44
2019-02-12T16:45:14.152Z,5.44
2019-02-12T16:45:58.161Z,5.44
2019-02-12T16:47:57.281Z,5.31
2019-02-12T16:49:57.254Z,5.31
2019-02-12T16:51:57.287Z,5.31
2019-02-12T16:53:57.051Z,5.19
2019-02-12T16:55:57.176Z,5.19
2019-02-12T16:57:57.272Z,5.13
2019-02-12T16:59:57.263Z,5.13
2019-02-12T17:00:14.214Z,5.13
2019-02-12T17:01:58.106Z,5.13
2019-02-12T17:03:57.198Z,5.19
2019-02-12T17:05:57.270Z,5.19
2019-02-12T17:07:57.234Z,5.19
2019-02-12T17:09:57.132Z,5.13
2019-02-12T17:11:57.278Z,5.13
2019-02-12T17:13:57.284Z,5.13
2019-02-12T17:15:14.159Z,5.13
2019-02-12T17:15:57.292Z,5.06
2019-02-12T17:17:58.163Z,5.06
2019-02-12T17:19:57.248Z,5.06
2019-02-12T17:21:57.402Z,5.06
2019-02-12T17:23:57.290Z,5
2019-02-12T17:25:57.272Z,5
2019-02-12T17:27:57.222Z,5
2019-02-12T17:29:57.247Z,4.94
2019-02-12T17:30:14.195Z,4.94
2019-02-12T17:31:57.287Z,5
2019-02-12T17:33:57.170Z,5
2019-02-12T17:35:58.081Z,5.06
2019-02-12T17:37:57.264Z,5.06
2019-02-12T17:39:57.298Z,5.06
2019-02-12T17:41:57.231Z,5.06
2019-02-12T17:43:57.316Z,5.06
2019-02-12T17:45:14.185Z,5.06
2019-02-12T17:45:57.296Z,5.06
2019-02-12T17:47:58.147Z,5
2019-02-12T17:49:58.094Z,5
2019-02-12T17:51:58.138Z,5
2019-02-12T17:53:57.286Z,4.94
2019-02-12T17:55:57.298Z,4.88
2019-02-12T17:57:57.224Z,4.88
2019-02-12T17:59:57.339Z,4.88
2019-02-12T18:00:14.191Z,4.81
2019-02-12T18:01:57.320Z,4.81
2019-02-12T18:03:57.305Z,4.75
2019-02-12T18:05:58.142Z,4.75
2019-02-12T18:07:57.287Z,4.69
2019-02-12T18:09:57.193Z,4.69
2019-02-12T18:11:57.299Z,4.69
2019-02-12T18:13:57.279Z,4.63
2019-02-12T18:15:14.211Z,4.56
2019-02-12T18:15:57.274Z,4.63
2019-02-12T18:17:57.257Z,4.56
2019-02-12T18:19:57.185Z,4.56
2019-02-12T18:21:57.225Z,4.56
2019-02-12T18:23:57.270Z,4.5
2019-02-12T18:25:57.290Z,4.44
2019-02-12T18:27:57.305Z,4.38
2019-02-12T18:29:57.281Z,4.38
2019-02-12T18:30:14.092Z,4.31
2019-02-12T18:31:57.270Z,4.31
2019-02-12T18:33:57.270Z,4.31
2019-02-12T18:35:57.219Z,4.25
2019-02-12T18:37:57.269Z,4.25
2019-02-12T18:39:57.223Z,4.19
2019-02-12T18:41:57.170Z,4.19
2019-02-12T18:43:57.219Z,4.13
2019-02-12T18:45:14.192Z,4.06
2019-02-12T18:45:58.471Z,4.06
2019-02-12T18:47:57.283Z,4
2019-02-12T18:49:57.272Z,4
2019-02-12T18:51:57.189Z,3.94
2019-02-12T18:53:57.219Z,3.88
2019-02-12T18:55:57.276Z,3.88
2019-02-12T18:57:57.257Z,3.94
2019-02-12T18:59:57.410Z,3.88
2019-02-12T19:00:14.185Z,3.88
2019-02-12T19:01:57.118Z,3.88
2019-02-12T19:03:57.285Z,3.94
2019-02-12T19:05:57.356Z,3.94
2019-02-12T19:07:57.215Z,3.88
2019-02-12T19:09:57.274Z,3.88
2019-02-12T19:11:57.266Z,3.94
2019-02-12T19:13:57.223Z,4
2019-02-12T19:15:14.196Z,3.94
2019-02-12T19:15:57.267Z,3.94
2019-02-12T19:17:57.215Z,3.88
2019-02-12T19:19:57.282Z,3.88
2019-02-12T19:21:57.177Z,3.88
2019-02-12T19:23:57.299Z,3.88
2019-02-12T19:25:57.197Z,3.81
2019-02-12T19:27:57.279Z,3.81
2019-02-12T19:29:57.260Z,3.81
2019-02-12T19:30:15.658Z,3.81
2019-02-12T19:31:59.246Z,3.81
2019-02-12T19:33:57.234Z,3.88
2019-02-12T19:35:57.287Z,3.88
2019-02-12T19:37:57.350Z,3.81
2019-02-12T19:39:57.266Z,3.81
2019-02-12T19:41:57.269Z,3.81
2019-02-12T19:43:57.080Z,3.75
2019-02-12T19:45:14.209Z,3.75
2019-02-12T19:45:57.260Z,3.75
2019-02-12T19:47:57.242Z,3.69
2019-02-12T19:49:57.185Z,3.75
2019-02-12T19:51:57.135Z,3.75
2019-02-12T19:53:57.447Z,3.69
2019-02-12T19:55:57.385Z,3.69
2019-02-12T19:57:57.203Z,3.63
2019-02-12T19:59:58.271Z,3.63
2019-02-12T20:00:14.190Z,3.69
2019-02-12T20:01:57.262Z,3.69
2019-02-12T20:03:57.277Z,3.63
2019-02-12T20:05:57.161Z,3.63
2019-02-12T20:07:57.289Z,3.56
2019-02-12T20:09:57.296Z,3.5
2019-02-12T20:11:57.209Z,3.5
2019-02-12T20:13:57.274Z,3.44
2019-02-12T20:15:14.207Z,3.44
2019-02-12T20:15:57.250Z,3.44
2019-02-12T20:17:57.277Z,3.38
2019-02-12T20:19:57.315Z,3.38
2019-02-12T20:21:57.187Z,3.38
2019-02-12T20:23:57.284Z,3.38
2019-02-12T20:25:57.244Z,3.38
2019-02-12T20:27:57.226Z,3.31
2019-02-12T20:29:57.240Z,3.31
2019-02-12T20:30:15.021Z,3.31
2019-02-12T20:31:57.474Z,3.25
2019-02-12T20:33:57.354Z,3.19
2019-02-12T20:35:57.156Z,3.19
2019-02-12T20:37:57.226Z,3.19
2019-02-12T20:39:58.157Z,3.19
2019-02-12T20:41:57.280Z,3.13
2019-02-12T20:43:57.247Z,3.06
2019-02-12T20:45:14.210Z,3.06
2019-02-12T20:45:57.274Z,3.06
2019-02-12T20:47:57.285Z,3.06
2019-02-12T20:49:57.218Z,3
2019-02-12T20:51:57.271Z,3
2019-02-12T20:53:57.127Z,2.94
2019-02-12T20:55:58.060Z,2.94
2019-02-12T20:57:57.209Z,2.88
2019-02-12T20:59:57.262Z,2.81
2019-02-12T21:00:14.174Z,2.81
2019-02-12T21:01:57.266Z,2.81
2019-02-12T21:03:57.358Z,2.81
2019-02-12T21:05:57.305Z,2.75
2019-02-12T21:07:57.266Z,2.75
2019-02-12T21:09:57.361Z,2.75
2019-02-12T21:11:57.285Z,2.75
2019-02-12T21:13:58.129Z,2.75
2019-02-12T21:15:15.093Z,2.75
2019-02-12T21:15:57.263Z,2.69
2019-02-12T21:17:58.051Z,2.69
2019-02-12T21:19:57.227Z,2.63
2019-02-12T21:21:57.269Z,2.63
2019-02-12T21:23:57.298Z,2.63
2019-02-12T21:25:57.283Z,2.63
2019-02-12T21:27:57.342Z,2.63
2019-02-12T21:29:57.238Z,2.56
2019-02-12T21:30:14.111Z,2.56
2019-02-12T21:31:57.295Z,2.56
2019-02-12T21:33:57.265Z,2.56
2019-02-12T21:35:58.935Z,2.56
2019-02-12T21:37:57.302Z,2.56
2019-02-12T21:39:57.339Z,2.5
2019-02-12T21:41:57.274Z,2.5
2019-02-12T21:43:57.286Z,2.5
2019-02-12T21:45:14.157Z,2.5
2019-02-12T21:45:57.286Z,2.5
2019-02-12T21:47:57.258Z,2.5
2019-02-12T21:49:58.078Z,2.5
2019-02-12T21:51:57.275Z,2.5
2019-02-12T21:53:57.275Z,2.56
2019-02-12T21:55:57.363Z,2.5
2019-02-12T21:57:58.794Z,2.5
2019-02-12T21:59:57.232Z,2.44
2019-02-12T22:00:14.266Z,2.44
2019-02-12T22:01:57.258Z,2.5
2019-02-12T22:03:57.251Z,2.44
2019-02-12T22:05:57.186Z,2.44
2019-02-12T22:07:57.219Z,2.44
2019-02-12T22:09:57.365Z,2.44
2019-02-12T22:11:57.271Z,2.5
2019-02-12T22:13:57.273Z,2.56
2019-02-12T22:15:15.105Z,2.56
2019-02-12T22:15:58.000Z,2.56
2019-02-12T22:17:58.062Z,2.5
2019-02-12T22:19:57.258Z,2.5
2019-02-12T22:21:57.225Z,2.56
2019-02-12T22:23:57.275Z,2.56
2019-02-12T22:25:58.147Z,2.56
2019-02-12T22:27:57.291Z,2.5
2019-02-12T22:29:57.288Z,2.56
2019-02-12T22:30:14.168Z,2.56
2019-02-12T22:31:57.270Z,2.5
2019-02-12T22:33:57.158Z,2.44
2019-02-12T22:35:57.265Z,2.44
2019-02-12T22:37:57.276Z,2.44
2019-02-12T22:39:57.268Z,2.5
2019-02-12T22:41:57.323Z,2.5
2019-02-12T22:43:57.268Z,2.5
2019-02-12T22:45:14.189Z,2.5
2019-02-12T22:45:57.268Z,2.44
2019-02-12T22:47:57.275Z,2.44
2019-02-12T22:49:57.223Z,2.44
2019-02-12T22:51:58.285Z,2.38
2019-02-12T22:53:57.246Z,2.31
2019-02-12T22:55:57.266Z,2.31
2019-02-12T22:57:57.280Z,2.38
2019-02-12T22:59:57.289Z,2.31
2019-02-12T23:00:14.205Z,2.31
2019-02-12T23:01:57.276Z,2.31
2019-02-12T23:03:57.290Z,2.31
2019-02-12T23:05:57.250Z,2.31
2019-02-12T23:07:57.291Z,2.31
2019-02-12T23:09:57.299Z,2.31
2019-02-12T23:11:57.266Z,2.31
2019-02-12T23:13:57.269Z,2.31
2019-02-12T23:15:14.240Z,2.25
2019-02-12T23:15:57.275Z,2.31
2019-02-12T23:17:57.281Z,2.31
2019-02-12T23:19:58.055Z,2.31
2019-02-12T23:21:57.256Z,2.31
2019-02-12T23:23:57.282Z,2.25
2019-02-12T23:25:57.275Z,2.31
2019-02-12T23:27:57.847Z,2.31
2019-02-12T23:29:57.287Z,2.25
2019-02-12T23:30:14.179Z,2.25
2019-02-12T23:31:57.267Z,2.19
2019-02-12T23:33:57.298Z,2.13
2019-02-12T23:35:58.132Z,2.13
2019-02-12T23:37:57.191Z,2.06
2019-02-12T23:39:57.227Z,2.06